createdAt,value
2018-04-08T00:02:10.932Z,100570.55
2018-04-08T00:04:40.833Z,100569.75
2018-04-08T00:07:09.980Z,100566.77
2018-04-08T00:09:39.112Z,100563.39
2018-04-08T00:12:07.374Z,100563.80
2018-04-08T00:14:36.477Z,100565.94
2018-04-08T00:17:04.757Z,100571.92
2018-04-08T00:19:34.084Z,100573.13
2018-04-08T00:22:03.260Z,100578.44
2018-04-08T00:24:32.613Z,100577.35
2018-04-08T00:27:01.735Z,100575.67
2018-04-08T00:29:30.416Z,100576.53
2018-04-08T00:31:59.188Z,100578.52
2018-04-08T00:34:27.410Z,100584.88
2018-04-08T00:36:55.920Z,100585.55
2018-04-08T00:39:24.571Z,100587.60
2018-04-08T00:41:53.269Z,100590.88
2018-04-08T00:44:21.588Z,100590.66
2018-04-08T00:46:50.140Z,100592.70
2018-04-08T00:49:17.878Z,100594.21
2018-04-08T00:51:45.535Z,100590.52
2018-04-08T00:54:25.108Z,100586.51
2018-04-08T00:56:52.990Z,100586.87
2018-04-08T00:59:20.582Z,100587.95
2018-04-08T01:01:48.274Z,100591.81
2018-04-08T01:04:16.014Z,100589.61
2018-04-08T01:06:43.618Z,100587.73
2018-04-08T01:09:11.246Z,100591.62
2018-04-08T01:11:38.922Z,100587.98
2018-04-08T01:14:06.566Z,100582.78
2018-04-08T01:16:34.255Z,100582.09
2018-04-08T01:19:01.919Z,100579.20
2018-04-08T01:21:29.580Z,100577.41
2018-04-08T01:23:57.239Z,100575.16
2018-04-08T01:26:24.925Z,100577.36
2018-04-08T01:28:52.554Z,100579.69
2018-04-08T01:31:21.049Z,100578.94
2018-04-08T01:33:48.699Z,100577.03
2018-04-08T01:36:16.374Z,100576.58
2018-04-08T01:38:44.019Z,100572.81
2018-04-08T01:41:11.742Z,100568.58
2018-04-08T01:43:39.555Z,100580.40
2018-04-08T01:46:07.208Z,100579.09
2018-04-08T01:48:35.067Z,100569.02
2018-04-08T01:51:02.748Z,100566.84
2018-04-08T01:53:30.400Z,100571.30
2018-04-08T01:55:58.081Z,100576.77
2018-04-08T01:58:25.809Z,100573.60
2018-04-08T02:00:53.614Z,100573.92
2018-04-08T02:03:21.479Z,100577.70
2018-04-08T02:05:49.138Z,100566.94
2018-04-08T02:08:17.008Z,100575.23
2018-04-08T02:10:44.667Z,100578.09
2018-04-08T02:13:12.326Z,100578.06
2018-04-08T02:15:39.992Z,100573.42
2018-04-08T02:18:07.587Z,100574.19
2018-04-08T02:20:35.312Z,100574.50
2018-04-08T02:23:02.979Z,100578.11
2018-04-08T02:25:30.611Z,100579.98
2018-04-08T02:27:58.322Z,100584.27
2018-04-08T02:30:26.381Z,100580.49
2018-04-08T02:32:54.030Z,100579.53
2018-04-08T02:35:21.619Z,100581.65
2018-04-08T02:37:49.355Z,100577.78
2018-04-08T02:40:17.019Z,100574.38
2018-04-08T02:42:44.681Z,100579.25
2018-04-08T02:45:12.344Z,100583.62
2018-04-08T02:47:40.012Z,100578.50
2018-04-08T02:50:07.880Z,100573.64
2018-04-08T02:52:35.746Z,100582.23
2018-04-08T02:55:03.608Z,100574.36
2018-04-08T02:57:31.281Z,100575.78
2018-04-08T02:59:59.136Z,100580.89
2018-04-08T03:02:26.734Z,100579.67
2018-04-08T03:04:54.672Z,100578.59
2018-04-08T03:07:22.334Z,100577.42
2018-04-08T03:09:50.198Z,100575.52
2018-04-08T03:12:17.850Z,100579.20
2018-04-08T03:14:45.703Z,100577.64
2018-04-08T03:17:13.572Z,100578.05
2018-04-08T03:19:41.311Z,100580.43
2018-04-08T03:22:09.332Z,100577.67
2018-04-08T03:24:36.976Z,100582.43
2018-04-08T03:27:04.836Z,100590.83
2018-04-08T03:29:32.525Z,100585.52
2018-04-08T03:32:00.186Z,100589.69
2018-04-08T03:34:27.910Z,100591.44
2018-04-08T03:36:55.705Z,100594.95
2018-04-08T03:39:23.302Z,100592.73
2018-04-08T03:41:50.961Z,100593.48
2018-04-08T03:44:18.752Z,100593.28
2018-04-08T03:46:46.753Z,100598.61
2018-04-08T03:49:14.638Z,100604.66
2018-04-08T03:51:42.721Z,100603.78
2018-04-08T03:54:10.362Z,100601.41
2018-04-08T03:56:38.038Z,100610.21
2018-04-08T03:59:05.903Z,100597.05
2018-04-08T04:01:33.551Z,100605.22
2018-04-08T04:04:01.144Z,100607.00
2018-04-08T04:06:28.889Z,100610.42
2018-04-08T04:08:56.549Z,100610.10
2018-04-08T04:11:24.481Z,100616.02
2018-04-08T04:13:52.163Z,100619.31
2018-04-08T04:16:19.799Z,100625.66
2018-04-08T04:18:59.293Z,100617.31
2018-04-08T04:21:38.827Z,100622.44
2018-04-08T04:27:12.230Z,100618.38
2018-04-08T04:29:40.116Z,100619.17
2018-04-08T04:32:07.756Z,100624.79
2018-04-08T04:34:35.411Z,100611.88
2018-04-08T04:37:03.045Z,100610.98
2018-04-08T04:39:30.746Z,100614.72
2018-04-08T04:41:58.425Z,100612.95
2018-04-08T04:44:26.096Z,100611.99
2018-04-08T04:46:53.807Z,100615.26
2018-04-08T04:49:21.404Z,100615.27
2018-04-08T04:51:49.033Z,100617.69
2018-04-08T04:54:16.940Z,100610.62
2018-04-08T04:56:44.585Z,100620.57
2018-04-08T04:59:12.263Z,100620.92
2018-04-08T05:01:39.909Z,100620.41
2018-04-08T05:04:07.588Z,100621.20
2018-04-08T05:06:35.239Z,100618.48
2018-04-08T05:09:02.864Z,100617.52
2018-04-08T05:11:30.688Z,100614.23
2018-04-08T05:13:58.368Z,100620.16
2018-04-08T05:16:26.310Z,100625.95
2018-04-08T05:18:53.969Z,100625.22
2018-04-08T05:21:21.838Z,100628.06
2018-04-08T05:23:49.490Z,100624.69
2018-04-08T05:26:17.152Z,100631.21
2018-04-08T05:28:44.944Z,100630.23
2018-04-08T05:31:12.695Z,100633.81
2018-04-08T05:33:40.344Z,100629.41
2018-04-08T05:36:08.022Z,100640.90
2018-04-08T05:38:35.683Z,100641.98
2018-04-08T05:41:03.567Z,100638.30
2018-04-08T05:43:31.255Z,100642.47
2018-04-08T05:45:58.843Z,100639.16
2018-04-08T05:48:26.526Z,100642.11
2018-04-08T05:50:54.146Z,100639.00
2018-04-08T05:53:21.845Z,100638.55
2018-04-08T05:55:49.506Z,100635.52
2018-04-08T05:58:17.168Z,100620.41
2018-04-08T06:00:44.839Z,100636.39
2018-04-08T06:03:12.431Z,100639.91
2018-04-08T06:05:40.065Z,100635.78
2018-04-08T06:08:08.017Z,100641.61
2018-04-08T06:10:35.638Z,100640.66
2018-04-08T06:13:03.276Z,100640.45
2018-04-08T06:15:30.862Z,100637.56
2018-04-08T06:17:58.456Z,100639.88
2018-04-08T06:20:26.140Z,100631.12
2018-04-08T06:22:53.869Z,100629.51
2018-04-08T06:25:21.675Z,100630.73
2018-04-08T06:27:49.403Z,100622.76
2018-04-08T06:30:17.043Z,100622.80
2018-04-08T06:32:44.628Z,100615.07
2018-04-08T06:35:12.330Z,100613.09
2018-04-08T06:37:40.007Z,100619.80
2018-04-08T06:40:07.849Z,100609.87
2018-04-08T06:42:35.726Z,100609.11
2018-04-08T06:45:03.333Z,100607.26
2018-04-08T06:47:30.972Z,100605.35
2018-04-08T06:49:58.803Z,100608.02
2018-04-08T06:52:26.558Z,100603.65
2018-04-08T06:54:54.153Z,100609.64
2018-04-08T06:57:21.792Z,100606.03
2018-04-08T06:59:49.602Z,100611.62
2018-04-08T07:02:17.219Z,100606.72
2018-04-08T07:04:45.235Z,100607.58
2018-04-08T07:07:12.944Z,100606.29
2018-04-08T07:09:40.944Z,100606.36
2018-04-08T07:12:08.619Z,100611.06
2018-04-08T07:14:36.246Z,100601.31
2018-04-08T07:17:04.014Z,100607.73
2018-04-08T07:19:31.676Z,100602.52
2018-04-08T07:21:59.260Z,100605.50
2018-04-08T07:24:26.983Z,100596.70
2018-04-08T07:26:54.865Z,100597.99
2018-04-08T07:29:22.541Z,100595.02
2018-04-08T07:31:50.193Z,100589.78
2018-04-08T07:34:17.842Z,100587.13
2018-04-08T07:36:45.434Z,100590.39
2018-04-08T07:39:13.034Z,100583.32
2018-04-08T07:41:40.842Z,100584.30
2018-04-08T07:44:08.741Z,100588.36
2018-04-08T07:46:36.555Z,100587.73
2018-04-08T07:49:04.436Z,100589.59
2018-04-08T07:51:32.030Z,100583.09
2018-04-08T07:53:59.884Z,100578.05
2018-04-08T07:56:27.698Z,100582.75
2018-04-08T07:58:55.307Z,100579.11
2018-04-08T08:01:22.904Z,100580.53
2018-04-08T08:03:50.539Z,100582.24
2018-04-08T08:06:18.138Z,100573.05
2018-04-08T08:08:45.940Z,100578.78
2018-04-08T08:11:13.609Z,100580.96
2018-04-08T08:13:41.232Z,100577.80
2018-04-08T08:16:08.927Z,100573.14
2018-04-08T08:18:36.597Z,100569.09
2018-04-08T08:21:04.226Z,100568.91
2018-04-08T08:23:31.917Z,100556.88
2018-04-08T08:25:59.581Z,100554.77
2018-04-08T08:28:27.233Z,100555.66
2018-04-08T08:30:54.899Z,100558.38
2018-04-08T08:33:22.568Z,100552.77
2018-04-08T08:35:50.220Z,100555.36
2018-04-08T08:38:17.905Z,100558.61
2018-04-08T08:40:45.882Z,100550.94
2018-04-08T08:43:13.625Z,100554.42
2018-04-08T08:45:41.274Z,100549.92
2018-04-08T08:48:08.949Z,100553.20
2018-04-08T08:50:36.603Z,100542.64
2018-04-08T08:53:04.275Z,100547.50
2018-04-08T08:55:31.918Z,100544.30
2018-04-08T08:57:59.589Z,100550.32
2018-04-08T09:00:27.251Z,100545.68
2018-04-08T09:02:55.128Z,100550.25
2018-04-08T09:05:22.779Z,100548.44
2018-04-08T09:07:50.375Z,100542.56
2018-04-08T09:10:18.106Z,100523.91
2018-04-08T09:12:45.776Z,100526.16
2018-04-08T09:15:13.438Z,100513.02
2018-04-08T09:17:41.102Z,100519.09
2018-04-08T09:20:26.500Z,100515.76
2018-04-08T09:22:57.096Z,100517.91
2018-04-08T09:25:25.791Z,100519.58
2018-04-08T09:27:53.384Z,100506.10
2018-04-08T09:30:21.010Z,100522.38
2018-04-08T09:32:48.786Z,100516.13
2018-04-08T09:35:16.643Z,100515.36
2018-04-08T09:37:44.550Z,100521.23
2018-04-08T09:40:12.517Z,100517.81
2018-04-08T09:42:40.255Z,100518.29
2018-04-08T09:45:07.907Z,100510.54
2018-04-08T09:47:35.523Z,100504.95
2018-04-08T09:50:03.121Z,100501.17
2018-04-08T09:52:30.964Z,100502.89
2018-04-08T09:54:58.755Z,100507.41
2018-04-08T09:57:27.095Z,100500.98
2018-04-08T09:59:54.808Z,100495.66
2018-04-08T10:02:28.108Z,100498.39
2018-04-08T10:04:55.696Z,100498.94
2018-04-08T10:07:23.430Z,100491.26
2018-04-08T10:09:51.051Z,100494.53
2018-04-08T10:12:18.690Z,100489.17
2018-04-08T10:14:46.278Z,100490.05
2018-04-08T10:17:13.915Z,100477.27
2018-04-08T10:19:41.574Z,100487.10
2018-04-08T10:22:09.185Z,100481.30
2018-04-08T10:24:36.846Z,100482.78
2018-04-08T10:27:04.570Z,100480.44
2018-04-08T10:29:32.154Z,100471.58
2018-04-08T10:31:59.859Z,100479.11
2018-04-08T10:34:27.518Z,100478.58
2018-04-08T10:36:55.164Z,100475.58
2018-04-08T10:39:23.032Z,100473.41
2018-04-08T10:41:50.616Z,100467.62
2018-04-08T10:44:18.799Z,100463.59
2018-04-08T10:46:46.628Z,100464.63
2018-04-08T10:49:14.303Z,100455.31
2018-04-08T10:51:41.984Z,100456.36
2018-04-08T10:54:09.682Z,100469.95
2018-04-08T10:56:37.267Z,100466.22
2018-04-08T10:59:04.861Z,100456.19
2018-04-08T11:01:32.515Z,100454.87
2018-04-08T11:04:00.458Z,100455.77
2018-04-08T11:06:28.145Z,100453.32
2018-04-08T11:08:55.805Z,100457.06
2018-04-08T11:11:23.482Z,100443.44
2018-04-08T11:13:51.059Z,100437.09
2018-04-08T11:16:18.712Z,100440.63
2018-04-08T11:18:46.297Z,100429.13
2018-04-08T11:21:14.467Z,100424.32
2018-04-08T11:23:42.119Z,100428.80
2018-04-08T11:26:09.746Z,100416.28
2018-04-08T11:28:37.317Z,100411.15
2018-04-08T11:31:04.969Z,100411.15
2018-04-08T11:33:32.554Z,100405.86
2018-04-08T11:36:00.146Z,100405.59
2018-04-08T11:38:27.767Z,100402.31
2018-04-08T11:40:55.516Z,100399.53
2018-04-08T11:43:23.167Z,100395.52
2018-04-08T11:45:50.841Z,100399.25
2018-04-08T11:48:18.470Z,100386.50
2018-04-08T11:50:46.169Z,100393.28
2018-04-08T11:53:14.239Z,100379.56
2018-04-08T11:55:42.107Z,100379.56
2018-04-08T11:58:09.734Z,100381.90
2018-04-08T12:00:37.420Z,100369.80
2018-04-08T12:03:05.071Z,100364.56
2018-04-08T12:05:32.668Z,100367.40
2018-04-08T12:08:00.306Z,100363.21
2018-04-08T12:10:27.938Z,100357.05
2018-04-08T12:12:55.734Z,100350.97
2018-04-08T12:15:23.583Z,100359.38
2018-04-08T12:17:51.254Z,100350.25
2018-04-08T12:20:18.962Z,100344.90
2018-04-08T12:22:46.626Z,100342.72
2018-04-08T12:25:14.263Z,100336.20
2018-04-08T12:27:41.897Z,100327.60
2018-04-08T12:30:09.558Z,100322.01
2018-04-08T12:32:37.244Z,100324.88
2018-04-08T12:35:05.097Z,100317.80
2018-04-08T12:37:32.774Z,100315.43
2018-04-08T12:40:00.494Z,100306.48
2018-04-08T12:42:28.141Z,100306.80
2018-04-08T12:44:55.744Z,100310.20
2018-04-08T12:47:23.332Z,100305.30
2018-04-08T12:49:50.947Z,100303.91
2018-04-08T12:52:18.735Z,100297.52
2018-04-08T12:54:47.683Z,100300.50
2018-04-08T12:57:15.310Z,100294.87
2018-04-08T12:59:42.912Z,100295.98
2018-04-08T13:02:10.529Z,100288.08
2018-04-08T13:04:38.287Z,100290.07
2018-04-08T13:07:05.913Z,100282.54
2018-04-08T13:09:33.508Z,100270.40
2018-04-08T13:12:01.175Z,100280.38
2018-04-08T13:14:29.124Z,100268.88
2018-04-08T13:16:56.800Z,100269.77
2018-04-08T13:19:24.454Z,100267.83
2018-04-08T13:21:54.757Z,100267.28
2018-04-08T13:24:22.652Z,100262.78
2018-04-08T13:26:50.427Z,100260.38
2018-04-08T13:29:18.027Z,100258.89
2018-04-08T13:31:45.619Z,100261.91
2018-04-08T13:34:13.305Z,100260.46
2018-04-08T13:36:40.961Z,100259.06
2018-04-08T13:39:08.586Z,100252.88
2018-04-08T13:41:36.205Z,100252.17
2018-04-08T13:44:06.326Z,100250.67
2018-04-08T13:46:33.913Z,100250.73
2018-04-08T13:49:01.721Z,100251.30
2018-04-08T13:51:29.341Z,100260.22
2018-04-08T13:53:56.965Z,100261.73
2018-04-08T13:56:24.718Z,100250.11
2018-04-08T13:58:52.415Z,100247.60
2018-04-08T14:01:20.069Z,100242.42
2018-04-08T14:03:47.685Z,100243.08
2018-04-08T14:06:15.366Z,100236.94
2018-04-08T14:08:43.015Z,100238.33
2018-04-08T14:11:10.700Z,100235.95
2018-04-08T14:13:38.296Z,100238.37
2018-04-08T14:16:06.020Z,100233.97
2018-04-08T14:18:33.630Z,100231.67
2018-04-08T14:21:01.244Z,100232.16
2018-04-08T14:23:28.850Z,100230.25
2018-04-08T14:25:56.648Z,100231.37
2018-04-08T14:28:24.228Z,100233.48
2018-04-08T14:30:52.036Z,100238.59
2018-04-08T14:33:19.846Z,100232.09
2018-04-08T14:35:47.525Z,100233.45
2018-04-08T14:38:15.449Z,100231.77
2018-04-08T14:40:43.146Z,100230.67
2018-04-08T14:43:10.906Z,100229.45
2018-04-08T14:45:38.505Z,100236.34
2018-04-08T14:48:06.197Z,100232.39
2018-04-08T14:50:33.866Z,100231.13
2018-04-08T14:53:01.493Z,100235.17
2018-04-08T14:55:29.161Z,100235.30
2018-04-08T14:57:57.800Z,100227.54
2018-04-08T15:00:29.047Z,100222.80
2018-04-08T15:03:00.085Z,100223.57
2018-04-08T15:05:31.362Z,100220.25
2018-04-08T15:08:02.988Z,100215.66
2018-04-08T15:10:35.837Z,100223.91
2018-04-08T15:13:07.208Z,100232.06
2018-04-08T15:15:39.036Z,100219.76
2018-04-08T15:18:10.663Z,100225.99
2018-04-08T15:20:42.007Z,100231.92
2018-04-08T15:23:13.252Z,100239.95
2018-04-08T15:25:44.648Z,100239.56
2018-04-08T15:28:12.590Z,100229.16
2018-04-08T15:30:40.657Z,100243.34
2018-04-08T15:33:08.322Z,100235.85
2018-04-08T15:35:35.937Z,100232.73
2018-04-08T15:38:03.563Z,100235.78
2018-04-08T15:40:31.183Z,100232.81
2018-04-08T15:42:59.067Z,100236.80
2018-04-08T15:45:29.063Z,100233.56
2018-04-08T15:47:56.796Z,100233.97
2018-04-08T15:50:24.404Z,100229.07
2018-04-08T15:52:52.030Z,100228.72
2018-04-08T15:55:23.851Z,100223.77
2018-04-08T15:57:51.776Z,100224.89
2018-04-08T16:00:19.367Z,100228.35
2018-04-08T16:02:47.010Z,100226.75
2018-04-08T16:05:14.639Z,100230.01
2018-04-08T16:07:42.249Z,100231.67
2018-04-08T16:10:09.838Z,100231.06
2018-04-08T16:12:37.483Z,100227.52
2018-04-08T16:15:05.075Z,100226.59
2018-04-08T16:17:32.675Z,100227.71
2018-04-08T16:20:00.341Z,100224.69
2018-04-08T16:22:27.911Z,100218.19
2018-04-08T16:24:55.500Z,100223.06
2018-04-08T16:27:23.134Z,100223.22
2018-04-08T16:29:50.773Z,100223.22
2018-04-08T16:32:18.353Z,100217.64
2018-04-08T16:34:46.101Z,100224.59
2018-04-08T16:37:13.701Z,100228.55
2018-04-08T16:39:41.422Z,100225.41
2018-04-08T16:42:09.063Z,100219.16
2018-04-08T16:44:36.648Z,100222.82
2018-04-08T16:47:04.417Z,100230.42
2018-04-08T16:49:32.042Z,100230.92
2018-04-08T16:51:59.650Z,100235.67
2018-04-08T16:54:27.240Z,100231.41
2018-04-08T16:56:54.861Z,100230.70
2018-04-08T16:59:22.500Z,100233.08
2018-04-08T17:01:50.120Z,100234.89
2018-04-08T17:04:17.764Z,100237.37
2018-04-08T17:06:45.506Z,100236.75
2018-04-08T17:09:13.087Z,100243.77
2018-04-08T17:11:40.732Z,100237.61
2018-04-08T17:14:08.306Z,100245.13
2018-04-08T17:16:35.883Z,100248.78
2018-04-08T17:19:03.512Z,100251.32
2018-04-08T17:21:31.151Z,100261.14
2018-04-08T17:23:58.795Z,100263.10
2018-04-08T17:26:26.447Z,100261.47
2018-04-08T17:28:54.083Z,100264.84
2018-04-08T17:31:21.661Z,100268.95
2018-04-08T17:33:49.337Z,100266.52
2018-04-08T17:36:16.931Z,100271.77
2018-04-08T17:38:44.526Z,100279.84
2018-04-08T17:41:12.193Z,100281.48
2018-04-08T17:43:39.831Z,100287.23
2018-04-08T17:46:07.547Z,100280.60
2018-04-08T17:48:35.202Z,100291.95
2018-04-08T17:51:02.799Z,100299.41
2018-04-08T17:53:30.383Z,100298.86
2018-04-08T17:55:58.003Z,100305.47
2018-04-08T17:58:25.585Z,100308.45
2018-04-08T18:00:53.277Z,100311.09
2018-04-08T18:03:20.915Z,100312.52
2018-04-08T18:05:48.500Z,100313.91
2018-04-08T18:08:16.102Z,100322.08
2018-04-08T18:10:43.711Z,100326.86
2018-04-08T18:13:11.290Z,100326.66
2018-04-08T18:15:38.906Z,100330.89
2018-04-08T18:18:06.529Z,100335.89
2018-04-08T18:20:35.781Z,100335.14
2018-04-08T18:23:03.914Z,100335.38
2018-04-08T18:25:32.726Z,100335.80
2018-04-08T18:28:00.868Z,100338.53
2018-04-08T18:30:28.657Z,100337.03
2018-04-08T18:32:56.967Z,100331.58
2018-04-08T18:35:24.855Z,100333.16
2018-04-08T18:37:52.679Z,100337.60
2018-04-08T18:40:20.510Z,100333.34
2018-04-08T18:42:48.382Z,100328.59
2018-04-08T18:45:17.701Z,100326.44
2018-04-08T18:47:45.410Z,100340.80
2018-04-08T18:50:13.368Z,100334.67
2018-04-08T18:52:41.109Z,100333.45
2018-04-08T18:55:09.159Z,100344.12
2018-04-08T18:57:36.851Z,100335.77
2018-04-08T19:00:05.429Z,100338.96
2018-04-08T19:02:33.356Z,100339.02
2018-04-08T19:05:02.762Z,100340.58
2018-04-08T19:07:30.975Z,100342.74
2018-04-08T19:09:58.960Z,100345.25
2018-04-08T19:12:31.819Z,100346.94
2018-04-08T19:15:06.958Z,100343.25
2018-04-08T19:17:40.482Z,100348.48
2018-04-08T19:20:08.174Z,100351.48
2018-04-08T19:22:35.928Z,100348.52
2018-04-08T19:25:03.670Z,100350.23
2018-04-08T19:27:36.587Z,100356.27
2018-04-08T19:30:10.081Z,100351.84
2018-04-08T19:32:39.320Z,100353.25
2018-04-08T19:35:08.697Z,100351.67
2018-04-08T19:37:38.556Z,100350.04
2018-04-08T19:40:06.200Z,100355.23
2018-04-08T19:42:34.821Z,100355.58
2018-04-08T19:45:02.776Z,100356.69
2018-04-08T19:47:32.921Z,100357.92
2018-04-08T19:50:00.537Z,100360.55
2018-04-08T19:52:28.137Z,100356.53
2018-04-08T19:54:55.800Z,100365.59
2018-04-08T19:57:23.393Z,100361.59
2018-04-08T19:59:50.970Z,100362.94
2018-04-08T20:02:18.587Z,100361.93
2018-04-08T20:04:46.166Z,100365.11
2018-04-08T20:07:13.746Z,100370.30
2018-04-08T20:09:41.385Z,100371.73
2018-04-08T20:12:09.025Z,100367.87
2018-04-08T20:14:36.609Z,100367.45
2018-04-08T20:17:04.220Z,100360.40
2018-04-08T20:19:31.819Z,100366.34
2018-04-08T20:21:59.452Z,100364.62
2018-04-08T20:24:27.129Z,100366.27
2018-04-08T20:26:54.745Z,100364.62
2018-04-08T20:29:22.352Z,100367.98
2018-04-08T20:31:49.977Z,100369.37
2018-04-08T20:34:17.568Z,100367.83
2018-04-08T20:36:45.146Z,100360.46
2018-04-08T20:39:12.765Z,100371.97
2018-04-08T20:41:40.339Z,100363.01
2018-04-08T20:44:07.914Z,100366.65
2018-04-08T20:46:35.521Z,100364.80
2018-04-08T20:49:03.168Z,100360.75
2018-04-08T20:51:30.754Z,100365.52
2018-04-08T20:53:58.394Z,100363.05
2018-04-08T20:56:26.019Z,100360.70
2018-04-08T20:58:53.608Z,100360.85
2018-04-08T21:01:21.346Z,100365.09
2018-04-08T21:03:48.920Z,100363.43
2018-04-08T21:06:16.521Z,100364.38
2018-04-08T21:08:44.176Z,100365.20
2018-04-08T21:11:11.776Z,100355.98
2018-04-08T21:13:39.364Z,100349.20
2018-04-08T21:16:06.978Z,100346.71
2018-04-08T21:18:34.587Z,100347.24
2018-04-08T21:21:02.200Z,100344.37
2018-04-08T21:23:29.805Z,100345.37
2018-04-08T21:25:57.388Z,100344.67
2018-04-08T21:28:24.995Z,100346.00
2018-04-08T21:30:52.656Z,100351.25
2018-04-08T21:33:20.378Z,100357.34
2018-04-08T21:35:48.064Z,100356.73
2018-04-08T21:38:15.710Z,100361.77
2018-04-08T21:40:43.315Z,100357.44
2018-04-08T21:43:10.939Z,100357.46
2018-04-08T21:45:38.597Z,100354.37
2018-04-08T21:48:06.178Z,100353.12
2018-04-08T21:50:33.770Z,100357.66
2018-04-08T21:53:01.445Z,100354.69
2018-04-08T21:55:32.973Z,100358.38
2018-04-08T21:58:00.590Z,100357.78
2018-04-08T22:00:28.210Z,100356.64
2018-04-08T22:02:55.796Z,100358.38
2018-04-08T22:05:23.379Z,100356.09
2018-04-08T22:07:51.182Z,100353.39
2018-04-08T22:10:18.776Z,100352.77
2018-04-08T22:12:46.378Z,100348.53
2018-04-08T22:15:14.027Z,100345.25
2018-04-08T22:17:41.704Z,100334.80
2018-04-08T22:20:09.301Z,100340.38
2018-04-08T22:22:36.922Z,100337.69
2018-04-08T22:25:04.507Z,100335.18
2018-04-08T22:27:32.082Z,100336.23
2018-04-08T22:29:59.714Z,100329.16
2018-04-08T22:32:27.305Z,100326.77
2018-04-08T22:34:54.883Z,100324.95
2018-04-08T22:37:22.514Z,100316.80
2018-04-08T22:39:50.114Z,100310.16
2018-04-08T22:42:17.704Z,100313.23
2018-04-08T22:44:45.322Z,100317.98
2018-04-08T22:47:13.044Z,100319.69
2018-04-08T22:49:40.621Z,100296.88
2018-04-08T22:52:08.255Z,100308.72
2018-04-08T22:54:35.870Z,100309.51
2018-04-08T22:57:03.454Z,100314.11
2018-04-08T22:59:31.073Z,100306.73
2018-04-08T23:01:58.660Z,100301.52
2018-04-08T23:04:26.249Z,100301.63
2018-04-08T23:06:53.906Z,100305.11
2018-04-08T23:09:21.538Z,100297.46
2018-04-08T23:11:49.166Z,100297.46
2018-04-08T23:14:16.824Z,100287.02
2018-04-08T23:16:44.414Z,100286.18
2018-04-08T23:19:12.012Z,100282.54
2018-04-08T23:21:39.655Z,100282.73
2018-04-08T23:24:07.249Z,100284.33
2018-04-08T23:26:34.848Z,100286.30
2018-04-08T23:29:02.595Z,100283.72
2018-04-08T23:31:30.286Z,100279.36
2018-04-08T23:33:57.878Z,100272.81
2018-04-08T23:36:25.519Z,100276.27
2018-04-08T23:38:53.096Z,100274.31
2018-04-08T23:41:20.686Z,100268.19
2018-04-08T23:43:48.325Z,100263.16
2018-04-08T23:46:15.916Z,100258.36
2018-04-08T23:48:43.532Z,100268.05
2018-04-08T23:51:11.170Z,100265.42
2018-04-08T23:53:39.018Z,100259.14
2018-04-08T23:56:06.642Z,100259.14
2018-04-08T23:58:34.263Z,100257.18
